sensor_id;sensor_type;location;lat;lon;timestamp;P1;durP1;ratioP1;P2;durP2;ratioP2
62711;SDS011;48772;55.586;37.730;2023-07-22T00:01:34;6.38;;;2.10;;
62711;SDS011;48772;55.586;37.730;2023-07-22T00:04:02;3.28;;;2.08;;
62711;SDS011;48772;55.586;37.730;2023-07-22T00:06:28;6.93;;;1.92;;
62711;SDS011;48772;55.586;37.730;2023-07-22T00:08:54;4.93;;;2.10;;
62711;SDS011;48772;55.586;37.730;2023-07-22T00:11:20;4.88;;;2.50;;
62711;SDS011;48772;55.586;37.730;2023-07-22T00:13:46;4.38;;;2.05;;
62711;SDS011;48772;55.586;37.730;2023-07-22T00:16:12;3.50;;;2.20;;
62711;SDS011;48772;55.586;37.730;2023-07-22T00:18:38;5.70;;;2.40;;
62711;SDS011;48772;55.586;37.730;2023-07-22T00:21:04;6.22;;;2.22;;
62711;SDS011;48772;55.586;37.730;2023-07-22T00:23:30;6.72;;;2.63;;
62711;SDS011;48772;55.586;37.730;2023-07-22T00:25:55;6.95;;;2.50;;
62711;SDS011;48772;55.586;37.730;2023-07-22T00:28:21;3.80;;;2.30;;
62711;SDS011;48772;55.586;37.730;2023-07-22T00:30:47;4.32;;;2.58;;
62711;SDS011;48772;55.586;37.730;2023-07-22T00:33:15;7.03;;;2.20;;
62711;SDS011;48772;55.586;37.730;2023-07-22T00:35:41;4.53;;;1.95;;
62711;SDS011;48772;55.586;37.730;2023-07-22T00:38:07;2.65;;;1.95;;
62711;SDS011;48772;55.586;37.730;2023-07-22T00:40:33;3.75;;;2.33;;
62711;SDS011;48772;55.586;37.730;2023-07-22T00:42:59;4.75;;;2.10;;
62711;SDS011;48772;55.586;37.730;2023-07-22T00:45:25;3.10;;;2.30;;
62711;SDS011;48772;55.586;37.730;2023-07-22T00:47:51;6.32;;;1.90;;
62711;SDS011;48772;55.586;37.730;2023-07-22T00:50:17;4.05;;;1.85;;
62711;SDS011;48772;55.586;37.730;2023-07-22T00:52:43;4.88;;;1.83;;
62711;SDS011;48772;55.586;37.730;2023-07-22T00:55:09;2.30;;;1.48;;
62711;SDS011;48772;55.586;37.730;2023-07-22T00:57:35;4.80;;;2.05;;
62711;SDS011;48772;55.586;37.730;2023-07-22T01:00:02;6.18;;;2.00;;
62711;SDS011;48772;55.586;37.730;2023-07-22T01:02:34;3.50;;;1.95;;
62711;SDS011;48772;55.586;37.730;2023-07-22T01:05:01;5.55;;;2.00;;
62711;SDS011;48772;55.586;37.730;2023-07-22T01:07:30;5.47;;;1.80;;
62711;SDS011;48772;55.586;37.730;2023-07-22T01:09:56;5.43;;;1.92;;
62711;SDS011;48772;55.586;37.730;2023-07-22T01:12:27;3.55;;;1.85;;
62711;SDS011;48772;55.586;37.730;2023-07-22T01:14:53;6.15;;;1.90;;
62711;SDS011;48772;55.586;37.730;2023-07-22T01:17:19;1.67;;;1.52;;
62711;SDS011;48772;55.586;37.730;2023-07-22T01:19:46;5.75;;;1.80;;
62711;SDS011;48772;55.586;37.730;2023-07-22T01:22:12;3.40;;;1.70;;
62711;SDS011;48772;55.586;37.730;2023-07-22T01:24:40;3.63;;;1.55;;
62711;SDS011;48772;55.586;37.730;2023-07-22T01:27:07;3.97;;;1.90;;
62711;SDS011;48772;55.586;37.730;2023-07-22T01:29:36;4.13;;;1.20;;
62711;SDS011;48772;55.586;37.730;2023-07-22T01:32:02;3.13;;;1.60;;
62711;SDS011;48772;55.586;37.730;2023-07-22T01:34:29;8.63;;;1.40;;
62711;SDS011;48772;55.586;37.730;2023-07-22T01:36:57;3.15;;;1.55;;
62711;SDS011;48772;55.586;37.730;2023-07-22T01:39:23;3.75;;;1.60;;
62711;SDS011;48772;55.586;37.730;2023-07-22T01:41:49;5.57;;;1.63;;
62711;SDS011;48772;55.586;37.730;2023-07-22T01:44:15;2.40;;;1.50;;
62711;SDS011;48772;55.586;37.730;2023-07-22T01:46:41;6.20;;;1.90;;
62711;SDS011;48772;55.586;37.730;2023-07-22T01:49:09;4.53;;;1.92;;
62711;SDS011;48772;55.586;37.730;2023-07-22T01:51:38;4.53;;;2.30;;
62711;SDS011;48772;55.586;37.730;2023-07-22T01:54:06;5.35;;;1.60;;
62711;SDS011;48772;55.586;37.730;2023-07-22T01:56:32;5.72;;;1.52;;
62711;SDS011;48772;55.586;37.730;2023-07-22T01:58:58;3.05;;;1.80;;
62711;SDS011;48772;55.586;37.730;2023-07-22T02:01:24;3.80;;;1.75;;
62711;SDS011;48772;55.586;37.730;2023-07-22T02:03:51;2.42;;;1.42;;
62711;SDS011;48772;55.586;37.730;2023-07-22T02:06:16;3.80;;;1.30;;
62711;SDS011;48772;55.586;37.730;2023-07-22T02:08:42;3.63;;;1.70;;
62711;SDS011;48772;55.586;37.730;2023-07-22T02:11:08;3.75;;;1.67;;
62711;SDS011;48772;55.586;37.730;2023-07-22T02:13:35;3.92;;;1.70;;
62711;SDS011;48772;55.586;37.730;2023-07-22T02:16:02;2.85;;;1.40;;
62711;SDS011;48772;55.586;37.730;2023-07-22T02:18:29;6.63;;;1.70;;
62711;SDS011;48772;55.586;37.730;2023-07-22T02:20:55;3.38;;;1.60;;
62711;SDS011;48772;55.586;37.730;2023-07-22T02:23:22;3.45;;;1.77;;
62711;SDS011;48772;55.586;37.730;2023-07-22T02:25:53;7.25;;;2.08;;
62711;SDS011;48772;55.586;37.730;2023-07-22T02:28:20;3.58;;;1.90;;
62711;SDS011;48772;55.586;37.730;2023-07-22T02:30:51;3.20;;;1.52;;
62711;SDS011;48772;55.586;37.730;2023-07-22T02:33:19;3.58;;;1.80;;
62711;SDS011;48772;55.586;37.730;2023-07-22T02:35:46;7.10;;;2.00;;
62711;SDS011;48772;55.586;37.730;2023-07-22T02:38:13;4.25;;;1.48;;
62711;SDS011;48772;55.586;37.730;2023-07-22T02:40:40;6.13;;;1.95;;
62711;SDS011;48772;55.586;37.730;2023-07-22T02:43:07;4.53;;;1.88;;
62711;SDS011;48772;55.586;37.730;2023-07-22T02:45:34;3.55;;;1.90;;
62711;SDS011;48772;55.586;37.730;2023-07-22T02:48:00;3.15;;;2.10;;
62711;SDS011;48772;55.586;37.730;2023-07-22T02:50:27;5.13;;;2.00;;
62711;SDS011;48772;55.586;37.730;2023-07-22T02:52:53;5.22;;;2.08;;
62711;SDS011;48772;55.586;37.730;2023-07-22T02:55:19;5.60;;;2.53;;
62711;SDS011;48772;55.586;37.730;2023-07-22T02:57:46;5.05;;;2.15;;
62711;SDS011;48772;55.586;37.730;2023-07-22T03:00:14;8.35;;;1.95;;
62711;SDS011;48772;55.586;37.730;2023-07-22T03:02:52;4.28;;;2.55;;
62711;SDS011;48772;55.586;37.730;2023-07-22T03:07:55;5.45;;;1.67;;
62711;SDS011;48772;55.586;37.730;2023-07-22T03:10:22;3.58;;;1.80;;
62711;SDS011;48772;55.586;37.730;2023-07-22T03:12:51;3.92;;;1.45;;
62711;SDS011;48772;55.586;37.730;2023-07-22T03:15:21;5.80;;;1.70;;
62711;SDS011;48772;55.586;37.730;2023-07-22T03:17:48;4.57;;;1.60;;
62711;SDS011;48772;55.586;37.730;2023-07-22T03:20:14;4.93;;;1.60;;
62711;SDS011;48772;55.586;37.730;2023-07-22T03:22:45;3.63;;;1.60;;
62711;SDS011;48772;55.586;37.730;2023-07-22T03:25:11;2.55;;;1.83;;
62711;SDS011;48772;55.586;37.730;2023-07-22T03:27:39;4.25;;;1.60;;
62711;SDS011;48772;55.586;37.730;2023-07-22T03:30:05;3.95;;;1.60;;
62711;SDS011;48772;55.586;37.730;2023-07-22T03:32:33;2.50;;;1.40;;
62711;SDS011;48772;55.586;37.730;2023-07-22T03:35:00;5.25;;;1.90;;
62711;SDS011;48772;55.586;37.730;2023-07-22T03:37:30;4.85;;;1.52;;
62711;SDS011;48772;55.586;37.730;2023-07-22T03:39:57;2.97;;;1.30;;
62711;SDS011;48772;55.586;37.730;2023-07-22T03:42:23;6.18;;;1.98;;
62711;SDS011;48772;55.586;37.730;2023-07-22T03:44:49;6.13;;;1.80;;
62711;SDS011;48772;55.586;37.730;2023-07-22T03:47:15;7.13;;;1.70;;
62711;SDS011;48772;55.586;37.730;2023-07-22T03:49:41;7.28;;;1.70;;
62711;SDS011;48772;55.586;37.730;2023-07-22T03:52:07;6.80;;;2.08;;
62711;SDS011;48772;55.586;37.730;2023-07-22T03:54:33;4.95;;;1.83;;
62711;SDS011;48772;55.586;37.730;2023-07-22T03:56:59;8.85;;;2.08;;
62711;SDS011;48772;55.586;37.730;2023-07-22T03:59:25;6.43;;;1.83;;
62711;SDS011;48772;55.586;37.730;2023-07-22T04:01:51;5.50;;;2.08;;
62711;SDS011;48772;55.586;37.730;2023-07-22T04:04:17;6.20;;;2.28;;
62711;SDS011;48772;55.586;37.730;2023-07-22T04:06:42;7.68;;;1.83;;
62711;SDS011;48772;55.586;37.730;2023-07-22T04:09:09;6.95;;;1.80;;
62711;SDS011;48772;55.586;37.730;2023-07-22T04:11:35;2.85;;;1.60;;
62711;SDS011;48772;55.586;37.730;2023-07-22T04:14:01;2.50;;;1.30;;
62711;SDS011;48772;55.586;37.730;2023-07-22T04:16:26;6.20;;;1.90;;
62711;SDS011;48772;55.586;37.730;2023-07-22T04:18:52;3.15;;;1.65;;
62711;SDS011;48772;55.586;37.730;2023-07-22T04:21:19;3.10;;;1.48;;
62711;SDS011;48772;55.586;37.730;2023-07-22T04:23:45;6.00;;;1.85;;
62711;SDS011;48772;55.586;37.730;2023-07-22T04:26:11;6.28;;;1.50;;
62711;SDS011;48772;55.586;37.730;2023-07-22T04:28:37;4.75;;;1.40;;
62711;SDS011;48772;55.586;37.730;2023-07-22T04:31:04;6.43;;;2.00;;
62711;SDS011;48772;55.586;37.730;2023-07-22T04:33:35;4.68;;;1.60;;
62711;SDS011;48772;55.586;37.730;2023-07-22T04:36:00;3.55;;;1.60;;
62711;SDS011;48772;55.586;37.730;2023-07-22T04:38:26;6.80;;;1.52;;
62711;SDS011;48772;55.586;37.730;2023-07-22T04:40:57;3.50;;;1.40;;
62711;SDS011;48772;55.586;37.730;2023-07-22T04:43:23;2.85;;;1.02;;
62711;SDS011;48772;55.586;37.730;2023-07-22T04:45:50;2.28;;;1.40;;
62711;SDS011;48772;55.586;37.730;2023-07-22T04:48:19;2.88;;;1.30;;
62711;SDS011;48772;55.586;37.730;2023-07-22T04:50:47;3.50;;;1.23;;
62711;SDS011;48772;55.586;37.730;2023-07-22T04:53:13;4.43;;;1.48;;
62711;SDS011;48772;55.586;37.730;2023-07-22T04:55:40;2.40;;;1.60;;
62711;SDS011;48772;55.586;37.730;2023-07-22T04:58:06;6.03;;;1.50;;
62711;SDS011;48772;55.586;37.730;2023-07-22T05:00:34;5.43;;;1.40;;
62711;SDS011;48772;55.586;37.730;2023-07-22T05:03:00;3.58;;;1.35;;
62711;SDS011;48772;55.586;37.730;2023-07-22T05:05:26;7.88;;;1.55;;
62711;SDS011;48772;55.586;37.730;2023-07-22T05:07:55;4.13;;;1.50;;
62711;SDS011;48772;55.586;37.730;2023-07-22T05:10:25;4.38;;;1.38;;
62711;SDS011;48772;55.586;37.730;2023-07-22T05:12:51;3.20;;;1.42;;
62711;SDS011;48772;55.586;37.730;2023-07-22T05:15:17;5.45;;;1.85;;
62711;SDS011;48772;55.586;37.730;2023-07-22T05:17:45;4.53;;;1.45;;
62711;SDS011;48772;55.586;37.730;2023-07-22T05:20:12;2.28;;;1.35;;
62711;SDS011;48772;55.586;37.730;2023-07-22T05:22:43;3.72;;;1.30;;
62711;SDS011;48772;55.586;37.730;2023-07-22T05:25:09;2.80;;;1.35;;
62711;SDS011;48772;55.586;37.730;2023-07-22T05:27:35;4.38;;;1.92;;
62711;SDS011;48772;55.586;37.730;2023-07-22T05:30:02;4.47;;;1.40;;
62711;SDS011;48772;55.586;37.730;2023-07-22T05:32:31;2.60;;;1.40;;
62711;SDS011;48772;55.586;37.730;2023-07-22T05:34:57;2.90;;;1.27;;
62711;SDS011;48772;55.586;37.730;2023-07-22T05:37:23;2.55;;;1.40;;
62711;SDS011;48772;55.586;37.730;2023-07-22T05:39:49;1.95;;;1.30;;
62711;SDS011;48772;55.586;37.730;2023-07-22T05:42:16;7.20;;;1.20;;
62711;SDS011;48772;55.586;37.730;2023-07-22T05:44:42;3.35;;;1.20;;
62711;SDS011;48772;55.586;37.730;2023-07-22T05:47:08;2.28;;;1.20;;
62711;SDS011;48772;55.586;37.730;2023-07-22T05:49:34;5.15;;;1.02;;
62711;SDS011;48772;55.586;37.730;2023-07-22T05:52:00;3.38;;;1.75;;
62711;SDS011;48772;55.586;37.730;2023-07-22T05:54:26;4.25;;;1.10;;
62711;SDS011;48772;55.586;37.730;2023-07-22T05:56:52;1.20;;;1.02;;
62711;SDS011;48772;55.586;37.730;2023-07-22T05:59:18;3.55;;;1.08;;
62711;SDS011;48772;55.586;37.730;2023-07-22T06:01:45;3.72;;;1.23;;
62711;SDS011;48772;55.586;37.730;2023-07-22T06:04:10;4.53;;;1.25;;
62711;SDS011;48772;55.586;37.730;2023-07-22T06:06:36;3.15;;;1.30;;
62711;SDS011;48772;55.586;37.730;2023-07-22T06:09:02;2.13;;;1.40;;
62711;SDS011;48772;55.586;37.730;2023-07-22T06:11:28;3.95;;;1.02;;
62711;SDS011;48772;55.586;37.730;2023-07-22T06:13:54;5.68;;;1.20;;
62711;SDS011;48772;55.586;37.730;2023-07-22T06:16:20;4.65;;;1.45;;
62711;SDS011;48772;55.586;37.730;2023-07-22T06:18:46;3.92;;;1.17;;
62711;SDS011;48772;55.586;37.730;2023-07-22T06:21:15;2.03;;;1.20;;
62711;SDS011;48772;55.586;37.730;2023-07-22T06:23:41;2.53;;;1.27;;
62711;SDS011;48772;55.586;37.730;2023-07-22T06:26:07;2.97;;;1.10;;
62711;SDS011;48772;55.586;37.730;2023-07-22T06:28:34;5.40;;;1.40;;
62711;SDS011;48772;55.586;37.730;2023-07-22T06:31:00;3.22;;;1.27;;
62711;SDS011;48772;55.586;37.730;2023-07-22T06:33:26;2.75;;;1.20;;
62711;SDS011;48772;55.586;37.730;2023-07-22T06:35:51;0.95;;;0.80;;
62711;SDS011;48772;55.586;37.730;2023-07-22T06:38:17;4.40;;;1.20;;
62711;SDS011;48772;55.586;37.730;2023-07-22T06:40:43;10.48;;;1.42;;
62711;SDS011;48772;55.586;37.730;2023-07-22T06:43:09;1.95;;;1.17;;
62711;SDS011;48772;55.586;37.730;2023-07-22T06:45:36;4.10;;;1.00;;
62711;SDS011;48772;55.586;37.730;2023-07-22T06:48:02;5.72;;;1.25;;
62711;SDS011;48772;55.586;37.730;2023-07-22T06:50:28;2.38;;;1.10;;
62711;SDS011;48772;55.586;37.730;2023-07-22T06:52:54;3.33;;;1.23;;
62711;SDS011;48772;55.586;37.730;2023-07-22T06:55:20;2.55;;;1.27;;
62711;SDS011;48772;55.586;37.730;2023-07-22T06:57:47;2.88;;;1.00;;
62711;SDS011;48772;55.586;37.730;2023-07-22T07:00:17;6.72;;;1.55;;
62711;SDS011;48772;55.586;37.730;2023-07-22T07:02:48;8.10;;;1.30;;
62711;SDS011;48772;55.586;37.730;2023-07-22T07:05:14;3.13;;;1.77;;
62711;SDS011;48772;55.586;37.730;2023-07-22T07:07:41;2.10;;;1.00;;
62711;SDS011;48772;55.586;37.730;2023-07-22T07:10:07;3.33;;;0.90;;
62711;SDS011;48772;55.586;37.730;2023-07-22T07:12:33;3.50;;;1.02;;
62711;SDS011;48772;55.586;37.730;2023-07-22T07:14:59;3.92;;;1.20;;
62711;SDS011;48772;55.586;37.730;2023-07-22T07:17:25;2.97;;;1.10;;
62711;SDS011;48772;55.586;37.730;2023-07-22T07:19:51;2.83;;;1.30;;
62711;SDS011;48772;55.586;37.730;2023-07-22T07:22:17;5.93;;;1.60;;
62711;SDS011;48772;55.586;37.730;2023-07-22T07:24:43;1.52;;;1.10;;
62711;SDS011;48772;55.586;37.730;2023-07-22T07:27:09;3.88;;;1.50;;
62711;SDS011;48772;55.586;37.730;2023-07-22T07:29:34;5.10;;;1.15;;
62711;SDS011;48772;55.586;37.730;2023-07-22T07:32:00;1.77;;;1.38;;
62711;SDS011;48772;55.586;37.730;2023-07-22T07:34:26;4.05;;;0.98;;
62711;SDS011;48772;55.586;37.730;2023-07-22T07:36:52;0.95;;;0.80;;
62711;SDS011;48772;55.586;37.730;2023-07-22T07:39:18;0.80;;;0.80;;
62711;SDS011;48772;55.586;37.730;2023-07-22T07:41:43;1.10;;;1.00;;
62711;SDS011;48772;55.586;37.730;2023-07-22T07:44:09;6.03;;;1.63;;
62711;SDS011;48772;55.586;37.730;2023-07-22T07:46:35;5.50;;;1.40;;
62711;SDS011;48772;55.586;37.730;2023-07-22T07:49:01;2.90;;;1.17;;
62711;SDS011;48772;55.586;37.730;2023-07-22T07:51:28;1.75;;;1.23;;
62711;SDS011;48772;55.586;37.730;2023-07-22T07:53:56;1.13;;;0.80;;
62711;SDS011;48772;55.586;37.730;2023-07-22T07:56:24;2.20;;;1.00;;
62711;SDS011;48772;55.586;37.730;2023-07-22T07:58:51;3.47;;;1.30;;
62711;SDS011;48772;55.586;37.730;2023-07-22T08:01:19;8.57;;;1.33;;
62711;SDS011;48772;55.586;37.730;2023-07-22T08:03:45;0.82;;;0.77;;
62711;SDS011;48772;55.586;37.730;2023-07-22T08:06:11;6.43;;;1.20;;
62711;SDS011;48772;55.586;37.730;2023-07-22T08:08:37;1.77;;;1.00;;
62711;SDS011;48772;55.586;37.730;2023-07-22T08:11:08;1.77;;;0.85;;
62711;SDS011;48772;55.586;37.730;2023-07-22T08:13:36;1.17;;;0.90;;
62711;SDS011;48772;55.586;37.730;2023-07-22T08:16:03;1.30;;;0.80;;
62711;SDS011;48772;55.586;37.730;2023-07-22T08:18:31;4.65;;;1.70;;
62711;SDS011;48772;55.586;37.730;2023-07-22T08:20:57;2.35;;;1.20;;
62711;SDS011;48772;55.586;37.730;2023-07-22T08:23:24;1.02;;;0.90;;
62711;SDS011;48772;55.586;37.730;2023-07-22T08:25:50;1.77;;;0.98;;
62711;SDS011;48772;55.586;37.730;2023-07-22T08:28:16;2.08;;;1.17;;
62711;SDS011;48772;55.586;37.730;2023-07-22T08:30:43;0.98;;;0.90;;
62711;SDS011;48772;55.586;37.730;2023-07-22T08:33:10;2.53;;;0.90;;
62711;SDS011;48772;55.586;37.730;2023-07-22T08:35:38;1.35;;;0.90;;
62711;SDS011;48772;55.586;37.730;2023-07-22T08:38:05;3.10;;;1.70;;
62711;SDS011;48772;55.586;37.730;2023-07-22T08:40:33;2.10;;;0.70;;
62711;SDS011;48772;55.586;37.730;2023-07-22T08:43:00;1.83;;;1.02;;
62711;SDS011;48772;55.586;37.730;2023-07-22T08:45:29;3.20;;;0.50;;
62711;SDS011;48772;55.586;37.730;2023-07-22T08:47:58;1.85;;;0.90;;
62711;SDS011;48772;55.586;37.730;2023-07-22T08:50:26;6.47;;;1.20;;
62711;SDS011;48772;55.586;37.730;2023-07-22T08:52:55;2.88;;;0.77;;
62711;SDS011;48772;55.586;37.730;2023-07-22T08:55:22;1.00;;;0.90;;
62711;SDS011;48772;55.586;37.730;2023-07-22T08:57:49;2.10;;;0.93;;
62711;SDS011;48772;55.586;37.730;2023-07-22T09:00:25;1.52;;;0.90;;
62711;SDS011;48772;55.586;37.730;2023-07-22T09:02:54;1.13;;;0.90;;
62711;SDS011;48772;55.586;37.730;2023-07-22T09:05:25;2.85;;;0.80;;
62711;SDS011;48772;55.586;37.730;2023-07-22T09:07:54;2.10;;;0.70;;
62711;SDS011;48772;55.586;37.730;2023-07-22T09:10:24;1.55;;;0.80;;
62711;SDS011;48772;55.586;37.730;2023-07-22T09:12:53;5.35;;;1.08;;
62711;SDS011;48772;55.586;37.730;2023-07-22T09:15:19;2.45;;;0.90;;
62711;SDS011;48772;55.586;37.730;2023-07-22T09:17:47;1.00;;;0.90;;
62711;SDS011;48772;55.586;37.730;2023-07-22T09:20:13;3.03;;;0.98;;
62711;SDS011;48772;55.586;37.730;2023-07-22T09:22:43;2.80;;;0.90;;
62711;SDS011;48772;55.586;37.730;2023-07-22T09:25:21;1.73;;;0.80;;
62711;SDS011;48772;55.586;37.730;2023-07-22T09:27:49;2.85;;;0.80;;
62711;SDS011;48772;55.586;37.730;2023-07-22T09:30:28;3.83;;;1.40;;
62711;SDS011;48772;55.586;37.730;2023-07-22T09:33:05;1.80;;;0.90;;
62711;SDS011;48772;55.586;37.730;2023-07-22T09:35:46;2.75;;;0.80;;
62711;SDS011;48772;55.586;37.730;2023-07-22T09:38:13;3.75;;;0.80;;
62711;SDS011;48772;55.586;37.730;2023-07-22T09:40:42;1.35;;;0.90;;
62711;SDS011;48772;55.586;37.730;2023-07-22T09:43:10;2.58;;;0.80;;
62711;SDS011;48772;55.586;37.730;2023-07-22T09:45:37;5.72;;;1.20;;
62711;SDS011;48772;55.586;37.730;2023-07-22T09:48:03;2.65;;;1.40;;
62711;SDS011;48772;55.586;37.730;2023-07-22T09:50:30;3.08;;;2.22;;
62711;SDS011;48772;55.586;37.730;2023-07-22T09:52:56;1.60;;;0.85;;
62711;SDS011;48772;55.586;37.730;2023-07-22T09:55:29;4.65;;;1.00;;
62711;SDS011;48772;55.586;37.730;2023-07-22T09:58:00;1.60;;;1.02;;
62711;SDS011;48772;55.586;37.730;2023-07-22T10:00:28;1.58;;;1.02;;
62711;SDS011;48772;55.586;37.730;2023-07-22T10:02:57;5.65;;;1.10;;
62711;SDS011;48772;55.586;37.730;2023-07-22T10:05:24;4.30;;;1.30;;
62711;SDS011;48772;55.586;37.730;2023-07-22T10:07:55;3.13;;;1.33;;
62711;SDS011;48772;55.586;37.730;2023-07-22T10:10:23;2.58;;;1.10;;
62711;SDS011;48772;55.586;37.730;2023-07-22T10:12:50;3.03;;;1.20;;
62711;SDS011;48772;55.586;37.730;2023-07-22T10:15:16;2.22;;;1.20;;
62711;SDS011;48772;55.586;37.730;2023-07-22T10:17:45;2.88;;;0.95;;
62711;SDS011;48772;55.586;37.730;2023-07-22T10:20:12;5.07;;;1.10;;
62711;SDS011;48772;55.586;37.730;2023-07-22T10:22:46;1.83;;;1.20;;
62711;SDS011;48772;55.586;37.730;2023-07-22T10:25:17;3.25;;;1.80;;
62711;SDS011;48772;55.586;37.730;2023-07-22T10:27:49;4.95;;;1.58;;
62711;SDS011;48772;55.586;37.730;2023-07-22T10:30:17;2.00;;;1.17;;
62711;SDS011;48772;55.586;37.730;2023-07-22T10:32:48;2.97;;;1.55;;
62711;SDS011;48772;55.586;37.730;2023-07-22T10:35:22;3.95;;;1.33;;
62711;SDS011;48772;55.586;37.730;2023-07-22T10:38:11;2.63;;;0.80;;
62711;SDS011;48772;55.586;37.730;2023-07-22T10:40:49;1.33;;;0.85;;
62711;SDS011;48772;55.586;37.730;2023-07-22T10:43:16;2.13;;;0.93;;
62711;SDS011;48772;55.586;37.730;2023-07-22T10:45:45;1.85;;;1.17;;
62711;SDS011;48772;55.586;37.730;2023-07-22T10:48:18;0.90;;;0.77;;
62711;SDS011;48772;55.586;37.730;2023-07-22T10:50:49;2.38;;;0.90;;
62711;SDS011;48772;55.586;37.730;2023-07-22T11:06:37;2.30;;;1.10;;
62711;SDS011;48772;55.586;37.730;2023-07-22T11:11:59;3.53;;;1.10;;
62711;SDS011;48772;55.586;37.730;2023-07-22T11:17:11;2.05;;;1.00;;
62711;SDS011;48772;55.586;37.730;2023-07-22T11:19:37;3.60;;;0.95;;
62711;SDS011;48772;55.586;37.730;2023-07-22T11:22:04;1.73;;;1.20;;
62711;SDS011;48772;55.586;37.730;2023-07-22T11:24:35;3.92;;;1.00;;
62711;SDS011;48772;55.586;37.730;2023-07-22T11:27:04;2.47;;;1.13;;
62711;SDS011;48772;55.586;37.730;2023-07-22T11:29:31;2.92;;;0.88;;
62711;SDS011;48772;55.586;37.730;2023-07-22T11:31:57;2.97;;;1.10;;
62711;SDS011;48772;55.586;37.730;2023-07-22T11:34:23;3.08;;;0.98;;
62711;SDS011;48772;55.586;37.730;2023-07-22T11:36:51;1.58;;;0.85;;
62711;SDS011;48772;55.586;37.730;2023-07-22T11:39:20;2.58;;;1.10;;
62711;SDS011;48772;55.586;37.730;2023-07-22T11:41:47;4.50;;;1.30;;
62711;SDS011;48772;55.586;37.730;2023-07-22T11:44:16;2.20;;;1.17;;
62711;SDS011;48772;55.586;37.730;2023-07-22T11:47:03;3.80;;;1.35;;
62711;SDS011;48772;55.586;37.730;2023-07-22T11:49:34;1.95;;;1.10;;
62711;SDS011;48772;55.586;37.730;2023-07-22T11:52:10;3.90;;;1.43;;
62711;SDS011;48772;55.586;37.730;2023-07-22T11:54:41;1.80;;;1.00;;
62711;SDS011;48772;55.586;37.730;2023-07-22T11:57:15;3.97;;;1.05;;
62711;SDS011;48772;55.586;37.730;2023-07-22T11:59:52;4.85;;;1.27;;
62711;SDS011;48772;55.586;37.730;2023-07-22T12:02:26;4.13;;;1.83;;
62711;SDS011;48772;55.586;37.730;2023-07-22T12:04:59;2.00;;;1.00;;
62711;SDS011;48772;55.586;37.730;2023-07-22T12:07:28;3.60;;;1.00;;
62711;SDS011;48772;55.586;37.730;2023-07-22T12:09:57;6.63;;;1.65;;
62711;SDS011;48772;55.586;37.730;2023-07-22T12:12:33;1.75;;;0.90;;
62711;SDS011;48772;55.586;37.730;2023-07-22T12:17:44;3.83;;;0.90;;
62711;SDS011;48772;55.586;37.730;2023-07-22T12:20:12;2.03;;;0.98;;
62711;SDS011;48772;55.586;37.730;2023-07-22T12:22:39;1.55;;;0.90;;
62711;SDS011;48772;55.586;37.730;2023-07-22T12:25:05;4.00;;;1.30;;
62711;SDS011;48772;55.586;37.730;2023-07-22T12:27:32;3.22;;;1.10;;
62711;SDS011;48772;55.586;37.730;2023-07-22T12:29:57;3.92;;;0.80;;
62711;SDS011;48772;55.586;37.730;2023-07-22T12:32:23;12.35;;;1.27;;
62711;SDS011;48772;55.586;37.730;2023-07-22T12:34:49;4.32;;;1.20;;
62711;SDS011;48772;55.586;37.730;2023-07-22T12:37:15;3.85;;;1.20;;
62711;SDS011;48772;55.586;37.730;2023-07-22T12:39:41;7.22;;;1.40;;
62711;SDS011;48772;55.586;37.730;2023-07-22T12:42:07;4.70;;;2.05;;
62711;SDS011;48772;55.586;37.730;2023-07-22T12:44:33;4.80;;;1.20;;
62711;SDS011;48772;55.586;37.730;2023-07-22T12:46:59;1.92;;;1.35;;
62711;SDS011;48772;55.586;37.730;2023-07-22T12:49:25;2.05;;;1.23;;
62711;SDS011;48772;55.586;37.730;2023-07-22T12:51:51;3.67;;;1.60;;
62711;SDS011;48772;55.586;37.730;2023-07-22T12:54:17;2.70;;;1.20;;
62711;SDS011;48772;55.586;37.730;2023-07-22T12:56:43;2.13;;;1.00;;
62711;SDS011;48772;55.586;37.730;2023-07-22T12:59:09;4.18;;;1.30;;
62711;SDS011;48772;55.586;37.730;2023-07-22T13:01:35;5.38;;;1.55;;
62711;SDS011;48772;55.586;37.730;2023-07-22T13:04:04;5.90;;;1.10;;
62711;SDS011;48772;55.586;37.730;2023-07-22T13:06:30;2.15;;;1.05;;
62711;SDS011;48772;55.586;37.730;2023-07-22T13:08:56;3.50;;;1.33;;
62711;SDS011;48772;55.586;37.730;2023-07-22T13:11:22;6.40;;;2.72;;
62711;SDS011;48772;55.586;37.730;2023-07-22T13:13:49;5.22;;;1.50;;
62711;SDS011;48772;55.586;37.730;2023-07-22T13:16:15;2.38;;;1.67;;
62711;SDS011;48772;55.586;37.730;2023-07-22T13:18:41;4.53;;;1.30;;
62711;SDS011;48772;55.586;37.730;2023-07-22T13:21:07;5.35;;;1.35;;
62711;SDS011;48772;55.586;37.730;2023-07-22T13:23:33;4.60;;;1.50;;
62711;SDS011;48772;55.586;37.730;2023-07-22T13:25:59;1.90;;;1.10;;
62711;SDS011;48772;55.586;37.730;2023-07-22T13:28:25;3.95;;;1.60;;
62711;SDS011;48772;55.586;37.730;2023-07-22T13:30:50;1.77;;;1.35;;
62711;SDS011;48772;55.586;37.730;2023-07-22T13:33:16;10.85;;;1.52;;
62711;SDS011;48772;55.586;37.730;2023-07-22T13:35:44;6.28;;;1.73;;
62711;SDS011;48772;55.586;37.730;2023-07-22T13:38:10;4.47;;;1.40;;
62711;SDS011;48772;55.586;37.730;2023-07-22T13:40:35;6.32;;;1.23;;
62711;SDS011;48772;55.586;37.730;2023-07-22T13:43:01;2.45;;;1.27;;
62711;SDS011;48772;55.586;37.730;2023-07-22T13:45:27;2.17;;;1.40;;
62711;SDS011;48772;55.586;37.730;2023-07-22T13:47:55;3.67;;;1.40;;
62711;SDS011;48772;55.586;37.730;2023-07-22T13:50:21;4.28;;;1.30;;
62711;SDS011;48772;55.586;37.730;2023-07-22T13:52:47;7.38;;;1.38;;
62711;SDS011;48772;55.586;37.730;2023-07-22T13:55:14;2.45;;;1.30;;
62711;SDS011;48772;55.586;37.730;2023-07-22T13:57:40;2.42;;;1.40;;
62711;SDS011;48772;55.586;37.730;2023-07-22T14:00:06;6.95;;;1.50;;
62711;SDS011;48772;55.586;37.730;2023-07-22T14:02:38;7.68;;;1.45;;
62711;SDS011;48772;55.586;37.730;2023-07-22T14:05:04;2.80;;;1.80;;
62711;SDS011;48772;55.586;37.730;2023-07-22T14:07:31;2.15;;;1.00;;
62711;SDS011;48772;55.586;37.730;2023-07-22T14:09:57;2.22;;;1.10;;
62711;SDS011;48772;55.586;37.730;2023-07-22T14:12:22;5.07;;;1.23;;
62711;SDS011;48772;55.586;37.730;2023-07-22T14:14:48;0.93;;;0.90;;
62711;SDS011;48772;55.586;37.730;2023-07-22T14:17:14;0.80;;;0.80;;
62711;SDS011;48772;55.586;37.730;2023-07-22T14:19:40;2.03;;;0.88;;
62711;SDS011;48772;55.586;37.730;2023-07-22T14:22:07;4.47;;;2.40;;
62711;SDS011;48772;55.586;37.730;2023-07-22T14:24:33;2.83;;;0.82;;
62711;SDS011;48772;55.586;37.730;2023-07-22T14:26:59;3.88;;;1.77;;
62711;SDS011;48772;55.586;37.730;2023-07-22T14:29:25;4.93;;;1.58;;
62711;SDS011;48772;55.586;37.730;2023-07-22T14:31:51;4.18;;;1.20;;
62711;SDS011;48772;55.586;37.730;2023-07-22T14:34:17;1.35;;;1.00;;
62711;SDS011;48772;55.586;37.730;2023-07-22T14:36:43;5.53;;;1.60;;
62711;SDS011;48772;55.586;37.730;2023-07-22T14:39:09;1.95;;;1.05;;
62711;SDS011;48772;55.586;37.730;2023-07-22T14:41:35;2.45;;;1.00;;
62711;SDS011;48772;55.586;37.730;2023-07-22T14:44:01;1.42;;;0.80;;
62711;SDS011;48772;55.586;37.730;2023-07-22T14:46:27;1.17;;;0.85;;
62711;SDS011;48772;55.586;37.730;2023-07-22T14:48:53;3.58;;;0.90;;
62711;SDS011;48772;55.586;37.730;2023-07-22T14:51:19;1.20;;;0.93;;
62711;SDS011;48772;55.586;37.730;2023-07-22T14:53:45;2.42;;;1.10;;
62711;SDS011;48772;55.586;37.730;2023-07-22T14:56:11;4.10;;;1.50;;
62711;SDS011;48772;55.586;37.730;2023-07-22T14:58:37;1.83;;;1.00;;